Airfield :
LOGIN :

Register | Disclaimer

   EN    FR    IT 

 










Legend :    VFR   Marginal VFR   IFR   Intensive IFR   Very Intensive IFR
Visi :
Ceiling :
>= 8 km
>= 3000ft
5 to 8 km
1000 to 3000 ft
1500m to 5 km
500 to 1000 ft
800 to 1500m
200 to 500 ft
< 800m
< 200 ft
Symbols :   Thunderstorms  Fog  Heavy snow  Heavy precipitations  Wind > 20 kt
SIGMETs :     Misc.  Thunderstorms  Icing  Turbulence  Mountain Waves  Volcanic Ashes







- Airport Elevation : 512 ft
- IATA code : URO
- Download approach charts


LFOP - Rouen Vallée de Seine

CURRENT METAR :
  • 220730Z AUTO 02012KT 9999 OVC008 13/11 Q1031 TEMPO 2000 DZ BECMG BKN020

EXPIRED METARs :
  • 220700Z AUTO 02012KT 9999 BKN008 OVC014 13/11 Q1031 TEMPO 2000 DZ OVC003
  • 220630Z AUTO 01012KT 9999 OVC005 13/12 Q1030 TEMPO 2000 DZ
  • 220600Z AUTO 02010KT 7000 OVC006 13/12 Q1030 TEMPO 2000 DZ OVC003
  • 220530Z AUTO 01010KT 5000 BR OVC004 13/13 Q1029 TEMPO 2000 DZ
  • 220500Z AUTO 01008KT 3500 -DZ BR BKN007 OVC028 13/12 Q1029

TAF TAF LFOP
Valid from the 22 at 06:00 until the 23 at 06:00 UTC


220500Z 2206/2306 01010KT 8000 BKN008
TEMPO 2206/2209 2000 DZ OVC003
BECMG 2209/2211 BKN020
BECMG 2220/2223 VRB02KT
PROB40 2223/2306 3000 BR
ATIS : +33 2 35 80 80 34
Met : +33 2 32 86 52 80
No reported NOTAMs for that airfield.



MET'MAP, your aeronautical weather chart ! - Copyright ORBIFLY December 2007 - Disclaimer

ORBIFLY MET'MAP TEAM :

Programming & Development : Alexandra Zaïnal
Concept & Development : Baudouin d'Aumeries
Co-Development & Prog : Marc-Olivier Méhu
Technical & hardware support : Manuel Goepfert

Contact : metmap@orbifly.com




SOURCES & CREDITS :

   NOAA